Time;durP1;ratioP1;P1;durP2;ratioP2;P2;SDS_P1;SDS_P2;PMS_P1;PMS_P2;Temp;Humidity;BMP_temperature;BMP_pressure;BME280_temperature;BME280_humidity;BME280_pressure;Samples;Min_cycle;Max_cycle;Signal;HPM_P1;HPM_P2
2022/03/25 00:00:31;;;;;;;13.43;8.88;;;18.40;43.10;;;;;;5108874;27;45403;-72
2022/03/25 00:02:58;;;;;;;14.20;8.85;;;18.30;43.20;;;;;;5102284;27;48355;-72
2022/03/25 00:05:25;;;;;;;13.13;8.40;;;18.40;44.50;;;;;;5108162;27;46861;-72
2022/03/25 00:07:51;;;;;;;12.13;7.80;;;18.40;43.10;;;;;;5109370;27;45365;-72
2022/03/25 00:10:20;;;;;;;11.50;7.75;;;18.30;43.40;;;;;;5107622;27;45182;-72
2022/03/25 00:12:47;;;;;;;9.88;7.65;;;18.30;43.70;;;;;;5107911;27;47396;-72
2022/03/25 00:15:14;;;;;;;10.98;7.45;;;18.30;43.80;;;;;;5101098;27;45273;-72
2022/03/25 00:17:40;;;;;;;12.63;7.82;;;18.30;43.80;;;;;;5102012;27;45263;-72
2022/03/25 00:20:08;;;;;;;13.95;8.35;;;18.30;43.60;;;;;;5107624;27;45543;-72
2022/03/25 00:22:35;;;;;;;14.88;9.10;;;18.30;43.40;;;;;;5109433;27;45265;-72
2022/03/25 00:25:04;;;;;;;13.32;8.98;;;18.30;43.20;;;;;;5108335;27;45183;-72
2022/03/25 00:27:33;;;;;;;13.68;8.50;;;18.30;43.10;;;;;;5107723;27;45170;-72
2022/03/25 00:29:59;;;;;;;12.57;8.52;;;18.40;43.20;;;;;;5108838;27;45363;-73
2022/03/25 00:32:26;;;;;;;11.32;7.70;;;18.40;43.40;;;;;;5108005;27;45224;-72
2022/03/25 00:34:53;;;;;;;12.80;8.55;;;18.40;43.40;;;;;;5107199;27;45521;-72
2022/03/25 00:37:20;;;;;;;14.60;8.93;;;18.40;43.50;;;;;;5109538;27;45142;-72
2022/03/25 00:39:47;;;;;;;12.90;8.38;;;18.40;43.30;;;;;;5108564;27;45329;-72
2022/03/25 00:42:16;;;;;;;11.73;8.05;;;18.30;43.30;;;;;;5108181;27;46315;-72
2022/03/25 00:44:44;;;;;;;12.80;8.63;;;18.40;44.50;;;;;;5106976;27;45158;-72
2022/03/25 00:47:11;;;;;;;12.77;8.07;;;18.30;43.20;;;;;;5108424;27;45169;-72
2022/03/25 00:49:38;;;;;;;13.25;8.70;;;18.30;43.60;;;;;;5106553;27;45245;-72
2022/03/25 00:52:05;;;;;;;13.18;8.45;;;18.30;43.50;;;;;;5109154;27;48287;-72
2022/03/25 00:54:32;;;;;;;11.32;7.90;;;18.30;43.30;;;;;;5109193;27;45170;-72
2022/03/25 00:56:59;;;;;;;13.48;8.25;;;18.30;43.90;;;;;;5106466;27;45285;-72
2022/03/25 00:59:26;;;;;;;10.50;7.60;;;18.30;43.50;;;;;;5106588;27;45280;-72
2022/03/25 01:01:54;;;;;;;12.27;8.32;;;18.30;43.50;;;;;;5103688;27;45233;-72
2022/03/25 01:04:21;;;;;;;11.07;7.65;;;18.30;43.70;;;;;;5093883;27;45302;-72
2022/03/25 01:06:47;;;;;;;11.73;8.00;;;18.30;43.60;;;;;;5109446;27;45424;-72
2022/03/25 01:09:14;;;;;;;11.95;8.30;;;18.30;43.70;;;;;;5108052;27;45463;-72
2022/03/25 01:11:41;;;;;;;12.95;8.38;;;18.30;43.60;;;;;;5101987;27;48154;-72
2022/03/25 01:14:08;;;;;;;12.88;8.10;;;18.30;43.70;;;;;;5106473;27;45334;-72
2022/03/25 01:16:35;;;;;;;10.82;7.75;;;18.30;43.70;;;;;;5106097;27;45350;-73
2022/03/25 01:19:04;;;;;;;12.00;7.85;;;18.30;43.80;;;;;;5105017;27;45476;-72
2022/03/25 01:21:31;;;;;;;13.95;8.68;;;18.30;43.60;;;;;;5108254;27;47923;-72
2022/03/25 01:23:57;;;;;;;12.68;8.23;;;18.30;43.60;;;;;;5108720;27;45236;-72
2022/03/25 01:26:25;;;;;;;11.85;8.15;;;18.30;43.50;;;;;;5105839;27;45459;-72
2022/03/25 01:28:52;;;;;;;14.38;8.35;;;18.30;43.40;;;;;;5107720;27;45392;-72
2022/03/25 01:31:19;;;;;;;12.63;8.07;;;18.40;43.40;;;;;;5107116;27;45136;-72
2022/03/25 01:33:46;;;;;;;11.20;7.55;;;18.40;43.50;;;;;;5106270;27;45293;-72
2022/03/25 01:36:14;;;;;;;10.65;7.13;;;18.30;43.40;;;;;;5108636;27;45179;-72
2022/03/25 01:38:41;;;;;;;12.68;8.32;;;18.30;43.60;;;;;;5107515;27;45224;-72
2022/03/25 01:41:08;;;;;;;12.05;7.63;;;18.30;43.50;;;;;;5107321;27;47387;-72
2022/03/25 01:43:35;;;;;;;15.48;7.95;;;18.30;43.70;;;;;;5102201;27;45192;-73
2022/03/25 01:46:02;;;;;;;13.95;8.52;;;18.20;43.70;;;;;;5106390;27;45533;-72
2022/03/25 01:48:29;;;;;;;11.18;7.30;;;18.30;43.60;;;;;;5106141;27;45357;-72
2022/03/25 01:50:56;;;;;;;9.57;7.13;;;18.30;44.00;;;;;;5107624;27;45349;-72
2022/03/25 01:53:26;;;;;;;13.10;8.45;;;18.30;44.00;;;;;;5107642;27;45242;-72
2022/03/25 01:55:56;;;;;;;13.07;7.70;;;18.20;43.70;;;;;;5106657;27;45570;-72
2022/03/25 01:58:23;;;;;;;12.85;8.18;;;18.20;43.70;;;;;;5105564;27;45189;-72
2022/03/25 02:00:51;;;;;;;10.82;7.65;;;18.30;43.90;;;;;;5107613;27;46645;-72
2022/03/25 02:03:19;;;;;;;12.00;7.97;;;18.30;43.70;;;;;;5105310;27;45259;-72
2022/03/25 02:05:46;;;;;;;12.10;7.72;;;18.30;43.70;;;;;;5108138;27;45238;-72
2022/03/25 02:08:15;;;;;;;11.43;7.95;;;18.30;43.70;;;;;;5107090;27;45351;-72
2022/03/25 02:10:44;;;;;;;11.20;7.93;;;18.30;43.50;;;;;;5107248;27;46271;-72
2022/03/25 02:13:12;;;;;;;10.95;7.65;;;18.30;43.70;;;;;;5104927;27;45268;-72
2022/03/25 02:15:40;;;;;;;11.98;7.70;;;18.30;44.00;;;;;;5099397;27;45553;-72
2022/03/25 02:18:10;;;;;;;11.02;7.25;;;18.30;43.70;;;;;;5105950;27;45520;-73
2022/03/25 02:20:38;;;;;;;10.63;7.20;;;18.30;43.80;;;;;;5104577;27;45240;-72
2022/03/25 02:23:07;;;;;;;11.43;7.15;;;18.30;43.70;;;;;;5105763;27;45269;-72
2022/03/25 02:25:34;;;;;;;11.75;7.25;;;18.30;43.70;;;;;;5107800;27;45302;-72
2022/03/25 02:28:04;;;;;;;10.40;7.07;;;18.30;43.90;;;;;;5106147;27;45780;-72
2022/03/25 02:30:32;;;;;;;11.75;7.82;;;18.30;44.00;;;;;;5109090;27;46413;-72
2022/03/25 02:33:01;;;;;;;11.48;7.50;;;18.20;43.70;;;;;;5108603;27;45273;-72
2022/03/25 02:35:41;;;;;;;12.35;7.72;;;18.30;43.90;;;;;;5110294;27;45522;-72
2022/03/25 02:38:11;;;;;;;11.52;6.97;;;18.30;43.60;;;;;;5111513;27;45628;-72
2022/03/25 02:40:38;;;;;;;11.52;7.53;;;18.20;43.60;;;;;;5109570;27;45235;-72
2022/03/25 02:43:06;;;;;;;13.82;8.45;;;18.20;43.60;;;;;;5109272;27;45175;-72
2022/03/25 02:45:33;;;;;;;12.75;7.88;;;18.20;43.70;;;;;;5111296;27;45309;-72
2022/03/25 02:48:02;;;;;;;12.27;8.02;;;18.20;43.70;;;;;;5108151;27;45306;-72
2022/03/25 02:50:29;;;;;;;12.55;8.43;;;18.20;43.40;;;;;;5104479;27;47166;-72
2022/03/25 02:52:57;;;;;;;12.90;8.38;;;18.20;43.50;;;;;;5107493;27;45244;-72
2022/03/25 02:55:25;;;;;;;12.15;7.85;;;18.30;43.70;;;;;;5108757;27;45272;-72
2022/03/25 02:57:52;;;;;;;11.15;7.50;;;18.30;43.50;;;;;;5110865;27;45264;-72
2022/03/25 03:00:20;;;;;;;13.32;9.32;;;18.30;43.50;;;;;;5106097;27;47104;-72
2022/03/25 03:02:47;;;;;;;12.50;8.57;;;18.30;43.30;;;;;;5108566;27;45239;-72
2022/03/25 03:05:14;;;;;;;13.95;8.70;;;18.30;43.20;;;;;;5107626;27;45290;-72
2022/03/25 03:07:41;;;;;;;12.77;8.35;;;18.30;43.50;;;;;;5097698;27;46327;-72
2022/03/25 03:10:09;;;;;;;13.23;8.75;;;18.30;43.40;;;;;;5109712;27;46624;-72
2022/03/25 03:12:37;;;;;;;13.63;8.70;;;18.30;43.30;;;;;;5110356;27;45227;-72
2022/03/25 03:15:06;;;;;;;11.65;7.93;;;18.30;43.20;;;;;;5103833;27;45435;-72
2022/03/25 03:17:33;;;;;;;15.98;7.57;;;18.30;43.40;;;;;;5106072;27;45499;-72
2022/03/25 03:20:02;;;;;;;12.40;8.55;;;18.20;43.40;;;;;;5108304;27;45324;-72
2022/03/25 03:22:29;;;;;;;13.43;8.48;;;18.30;43.50;;;;;;5109332;27;45461;-72
2022/03/25 03:24:56;;;;;;;14.55;8.77;;;18.20;43.30;;;;;;5109522;27;45375;-72
2022/03/25 03:27:23;;;;;;;12.15;8.35;;;18.20;43.60;;;;;;5110081;27;45411;-72
2022/03/25 03:29:51;;;;;;;14.90;8.65;;;18.20;43.70;;;;;;5107522;27;46398;-72
2022/03/25 03:32:18;;;;;;;12.18;7.78;;;18.20;43.60;;;;;;5108166;27;45233;-72
2022/03/25 03:34:45;;;;;;;12.93;8.25;;;18.20;43.40;;;;;;5108598;27;45337;-72
2022/03/25 03:37:12;;;;;;;12.25;7.78;;;18.20;43.70;;;;;;5110341;27;45418;-73
2022/03/25 03:39:39;;;;;;;11.38;7.18;;;18.20;43.70;;;;;;5109295;27;46615;-72
2022/03/25 03:42:08;;;;;;;11.40;7.47;;;18.20;44.00;;;;;;5106265;27;45292;-72
2022/03/25 03:44:36;;;;;;;13.30;7.97;;;18.20;43.90;;;;;;5110169;27;45254;-73
2022/03/25 03:47:06;;;;;;;12.77;7.85;;;18.20;43.80;;;;;;5106565;27;45403;-72
2022/03/25 03:49:32;;;;;;;10.45;7.47;;;18.30;44.00;;;;;;5109406;27;45467;-72
2022/03/25 03:51:59;;;;;;;11.48;7.80;;;18.20;43.90;;;;;;5107312;27;45298;-72
2022/03/25 03:54:26;;;;;;;13.32;7.97;;;18.30;44.00;;;;;;5110384;27;45163;-72
2022/03/25 03:56:53;;;;;;;13.05;8.00;;;18.30;43.80;;;;;;5101898;27;45224;-72
2022/03/25 03:59:20;;;;;;;12.60;7.72;;;18.30;44.00;;;;;;5098852;27;47161;-72
2022/03/25 04:01:48;;;;;;;12.88;7.95;;;18.30;44.00;;;;;;5105145;27;45876;-72
2022/03/25 04:04:16;;;;;;;13.35;8.60;;;18.30;43.90;;;;;;5106352;27;45360;-72
2022/03/25 04:06:43;;;;;;;10.85;7.82;;;18.30;43.80;;;;;;5109289;27;45329;-72
2022/03/25 04:09:10;;;;;;;12.00;7.82;;;18.20;43.80;;;;;;5104809;27;46144;-72
2022/03/25 04:11:36;;;;;;;12.25;7.90;;;18.30;44.00;;;;;;5098190;27;46298;-72
2022/03/25 04:14:03;;;;;;;12.20;7.53;;;18.20;43.90;;;;;;5109881;27;45207;-72
2022/03/25 04:16:30;;;;;;;12.18;8.18;;;18.20;43.90;;;;;;5106352;27;45226;-72
2022/03/25 04:18:57;;;;;;;11.68;7.85;;;18.20;43.90;;;;;;5107628;27;46383;-72
2022/03/25 04:21:26;;;;;;;13.27;7.90;;;18.20;43.80;;;;;;5108331;27;45304;-72
2022/03/25 04:23:53;;;;;;;10.52;7.53;;;18.20;43.90;;;;;;5108889;27;45258;-72
2022/03/25 04:26:20;;;;;;;12.02;7.88;;;18.20;44.00;;;;;;5105934;27;45316;-72
2022/03/25 04:28:46;;;;;;;13.70;8.10;;;18.20;44.00;;;;;;5108034;27;46327;-72
2022/03/25 04:31:13;;;;;;;12.35;7.80;;;18.20;44.10;;;;;;5108965;27;45271;-72
2022/03/25 04:33:40;;;;;;;12.18;7.72;;;18.20;44.00;;;;;;5108191;27;45352;-72
2022/03/25 04:36:08;;;;;;;13.10;8.50;;;18.20;44.10;;;;;;5091553;27;45292;-72
2022/03/25 04:38:36;;;;;;;12.13;7.70;;;18.20;44.00;;;;;;5107254;27;47902;-72
2022/03/25 04:41:03;;;;;;;15.85;8.65;;;18.20;44.10;;;;;;5088921;28;45176;-72
2022/03/25 04:43:30;;;;;;;12.02;7.85;;;18.20;43.90;;;;;;5107492;27;46326;-72
2022/03/25 04:45:57;;;;;;;11.40;7.80;;;18.30;44.10;;;;;;5109466;27;45212;-72
2022/03/25 04:48:24;;;;;;;12.23;8.25;;;18.20;43.90;;;;;;5108526;27;47070;-72
2022/03/25 04:50:50;;;;;;;12.60;7.93;;;18.30;44.00;;;;;;5105930;27;45245;-72
2022/03/25 04:53:17;;;;;;;13.23;8.77;;;18.30;44.10;;;;;;5102285;27;45178;-72
2022/03/25 04:55:45;;;;;;;13.02;8.10;;;18.20;43.80;;;;;;5102758;27;45263;-72
2022/03/25 04:58:12;;;;;;;12.25;8.60;;;18.30;44.10;;;;;;5106207;27;45176;-72
2022/03/25 05:00:39;;;;;;;11.68;7.97;;;18.20;44.00;;;;;;5108019;27;45177;-72
2022/03/25 05:03:06;;;;;;;11.98;8.32;;;18.20;44.00;;;;;;5106192;27;45269;-72
2022/03/25 05:05:34;;;;;;;10.80;7.75;;;18.20;44.10;;;;;;5106637;27;45407;-72
2022/03/25 05:08:01;;;;;;;9.98;6.57;;;18.20;44.00;;;;;;5108252;27;46438;-72
2022/03/25 05:10:28;;;;;;;11.88;8.10;;;18.10;45.40;;;;;;5107948;27;45180;-72
2022/03/25 05:12:56;;;;;;;10.20;6.97;;;18.10;44.50;;;;;;5107721;27;45285;-72
2022/03/25 05:15:23;;;;;;;13.88;7.65;;;18.10;44.80;;;;;;5107777;27;45271;-72
2022/03/25 05:17:52;;;;;;;12.13;7.72;;;18.10;44.80;;;;;;5104423;27;46363;-72
2022/03/25 05:20:21;;;;;;;12.95;8.75;;;18.10;44.70;;;;;;5103468;27;45200;-72
2022/03/25 05:22:48;;;;;;;11.20;8.00;;;18.10;44.70;;;;;;5107974;27;45231;-72
2022/03/25 05:25:16;;;;;;;12.90;8.40;;;18.10;44.60;;;;;;5108299;27;45213;-72
2022/03/25 05:27:45;;;;;;;11.95;7.90;;;18.10;44.50;;;;;;5106463;27;47964;-72
2022/03/25 05:30:14;;;;;;;13.55;8.50;;;18.20;44.60;;;;;;5107476;27;45199;-72
2022/03/25 05:32:41;;;;;;;12.20;7.75;;;18.20;44.50;;;;;;5107167;27;45202;-73
2022/03/25 05:35:10;;;;;;;12.35;7.93;;;18.20;44.50;;;;;;5106643;27;45535;-72
2022/03/25 05:37:37;;;;;;;16.02;8.43;;;18.20;44.40;;;;;;5107576;27;46372;-72
2022/03/25 05:40:05;;;;;;;14.80;10.15;;;18.20;44.40;;;;;;5102377;27;45368;-72
2022/03/25 05:42:32;;;;;;;14.27;9.25;;;18.10;44.10;;;;;;5102231;27;45203;-72
2022/03/25 05:44:59;;;;;;;16.65;9.48;;;18.10;44.20;;;;;;5106887;27;45215;-72
2022/03/25 05:47:28;;;;;;;15.80;10.00;;;18.10;44.30;;;;;;5107092;27;45279;-72
2022/03/25 05:49:55;;;;;;;15.68;9.93;;;18.10;44.20;;;;;;5105211;27;45749;-72
2022/03/25 05:52:21;;;;;;;14.38;9.30;;;18.10;44.40;;;;;;5106843;27;45426;-72
2022/03/25 05:54:48;;;;;;;20.17;10.70;;;18.10;44.40;;;;;;5106195;27;45371;-72
2022/03/25 05:57:15;;;;;;;19.92;10.07;;;18.10;44.40;;;;;;5104642;27;47373;-72
2022/03/25 05:59:43;;;;;;;17.58;10.60;;;18.00;44.60;;;;;;5105633;27;45379;-72
2022/03/25 06:02:10;;;;;;;16.95;10.00;;;18.10;45.00;;;;;;5102927;27;45745;-72
2022/03/25 06:04:38;;;;;;;18.10;11.80;;;18.10;45.10;;;;;;5106045;27;45232;-72
2022/03/25 06:07:05;;;;;;;18.75;12.52;;;18.10;44.50;;;;;;5107196;27;47091;-72
2022/03/25 06:09:32;;;;;;;20.23;11.30;;;18.10;43.90;;;;;;5107141;27;45236;-72
2022/03/25 06:11:59;;;;;;;16.13;10.43;;;18.10;43.50;;;;;;5105849;27;45182;-72
2022/03/25 06:14:26;;;;;;;18.15;11.57;;;18.10;44.60;;;;;;5107466;27;45154;-72
2022/03/25 06:16:53;;;;;;;17.58;11.20;;;18.00;43.20;;;;;;5106110;27;45162;-72
2022/03/25 06:19:19;;;;;;;18.23;11.82;;;18.00;43.30;;;;;;5106842;27;45400;-72
2022/03/25 06:21:49;;;;;;;18.35;11.55;;;18.00;42.90;;;;;;5104729;27;45220;-72
2022/03/25 06:24:16;;;;;;;18.13;12.57;;;18.00;42.70;;;;;;5108131;27;45311;-72
2022/03/25 06:26:42;;;;;;;23.63;13.07;;;18.00;42.00;;;;;;5102316;27;46303;-72
2022/03/25 06:29:09;;;;;;;18.10;12.38;;;18.00;42.30;;;;;;5102545;27;45552;-71
2022/03/25 06:31:36;;;;;;;20.00;11.48;;;18.00;42.50;;;;;;5103885;27;45364;-71
2022/03/25 06:34:03;;;;;;;18.75;12.32;;;18.00;43.00;;;;;;5104102;27;45797;-72
2022/03/25 06:36:30;;;;;;;18.52;11.90;;;17.90;42.90;;;;;;5106564;27;45387;-72
2022/03/25 06:38:59;;;;;;;21.63;12.38;;;17.90;42.60;;;;;;5104099;27;45220;-72
2022/03/25 06:41:25;;;;;;;19.23;12.00;;;17.90;43.30;;;;;;5105598;27;45222;-72
2022/03/25 06:43:52;;;;;;;18.55;11.57;;;18.00;43.90;;;;;;5106235;27;45399;-72
2022/03/25 06:46:19;;;;;;;20.80;12.52;;;18.00;44.40;;;;;;5104809;27;47097;-72
2022/03/25 06:48:46;;;;;;;19.05;12.32;;;18.00;44.70;;;;;;5103952;27;45634;-72
2022/03/25 06:51:13;;;;;;;18.08;11.52;;;18.00;45.00;;;;;;5107188;27;45246;-73
2022/03/25 06:53:41;;;;;;;22.08;12.05;;;18.10;45.30;;;;;;5107041;27;45190;-72
2022/03/25 06:56:11;;;;;;;20.77;12.60;;;18.20;45.30;;;;;;5106172;27;45203;-73
2022/03/25 06:58:38;;;;;;;16.55;11.55;;;18.20;45.50;;;;;;5105073;27;45238;-72
2022/03/25 07:01:06;;;;;;;17.65;11.35;;;18.30;45.60;;;;;;5106224;27;45448;-72
2022/03/25 07:03:33;;;;;;;16.90;10.82;;;18.30;46.00;;;;;;5106642;27;45679;-72
2022/03/25 07:06:01;;;;;;;18.00;12.18;;;18.30;46.20;;;;;;5104923;27;48346;-72
2022/03/25 07:08:29;;;;;;;18.02;11.68;;;18.30;46.40;;;;;;5105020;27;45715;-72
2022/03/25 07:10:59;;;;;;;18.35;11.85;;;18.30;46.40;;;;;;5107662;27;45221;-72
2022/03/25 07:13:28;;;;;;;16.55;11.10;;;18.30;46.60;;;;;;5106893;27;45264;-73
2022/03/25 07:15:55;;;;;;;14.93;10.32;;;18.30;46.80;;;;;;5106261;27;45978;-72
2022/03/25 07:18:21;;;;;;;16.60;10.68;;;18.30;46.90;;;;;;5108092;27;45802;-73
2022/03/25 07:20:48;;;;;;;17.35;11.32;;;18.30;46.90;;;;;;5109453;27;45259;-72
2022/03/25 07:23:15;;;;;;;17.48;11.07;;;18.30;47.10;;;;;;5089674;27;45283;-73
2022/03/25 07:25:42;;;;;;;15.20;9.82;;;18.30;47.00;;;;;;5094383;27;47425;-72
2022/03/25 07:28:09;;;;;;;15.30;10.15;;;18.30;47.00;;;;;;5100724;27;45658;-72
2022/03/25 07:30:38;;;;;;;19.40;10.93;;;18.20;47.10;;;;;;5105336;27;45223;-72
2022/03/25 07:33:05;;;;;;;16.50;10.60;;;18.30;47.20;;;;;;5107374;27;45152;-72
2022/03/25 07:35:32;;;;;;;17.10;10.43;;;18.20;47.40;;;;;;5108292;27;47095;-72
2022/03/25 07:37:58;;;;;;;17.15;10.18;;;18.20;47.70;;;;;;5108809;27;45282;-72
2022/03/25 07:40:25;;;;;;;17.48;11.65;;;18.20;47.90;;;;;;5108669;27;45463;-72
2022/03/25 07:42:52;;;;;;;14.85;9.40;;;18.20;47.80;;;;;;5101358;27;45206;-72
2022/03/25 07:45:19;;;;;;;16.98;10.57;;;18.20;48.10;;;;;;5106567;27;47431;-72
2022/03/25 07:47:49;;;;;;;15.38;10.23;;;18.20;47.90;;;;;;5105850;27;45288;-72
2022/03/25 07:50:18;;;;;;;17.50;11.25;;;18.20;47.70;;;;;;5107229;27;45639;-72
2022/03/25 07:52:46;;;;;;;16.70;10.80;;;18.20;48.10;;;;;;5108983;27;45589;-72
2022/03/25 07:55:15;;;;;;;17.45;11.20;;;18.20;48.20;;;;;;5104617;27;46543;-72
2022/03/25 07:57:42;;;;;;;16.90;11.43;;;18.20;48.10;;;;;;5099619;27;45358;-72
2022/03/25 08:00:12;;;;;;;17.40;11.45;;;18.20;48.00;;;;;;5103987;27;45522;-72
2022/03/25 08:02:39;;;;;;;18.50;11.05;;;18.20;48.10;;;;;;5107361;27;45215;-72
2022/03/25 08:05:10;;;;;;;15.23;10.25;;;18.30;48.20;;;;;;5106394;27;46159;-72
2022/03/25 08:07:48;;;;;;;15.73;10.30;;;18.30;48.30;;;;;;5108541;27;45907;-72
2022/03/25 08:10:17;;;;;;;15.07;9.90;;;18.20;48.10;;;;;;5108524;27;45184;-72
2022/03/25 08:12:44;;;;;;;17.25;10.50;;;18.20;48.30;;;;;;5108622;27;45365;-72
2022/03/25 08:15:11;;;;;;;16.00;9.93;;;18.20;48.00;;;;;;5106761;27;49105;-72
2022/03/25 08:17:52;;;;;;;13.57;9.93;;;18.20;48.30;;;;;;5107790;27;45406;-72
2022/03/25 08:20:26;;;;;;;18.00;10.10;;;18.20;48.30;;;;;;5107336;27;45468;-72
2022/03/25 08:22:53;;;;;;;14.88;9.48;;;18.20;48.30;;;;;;5107044;27;45213;-72
2022/03/25 08:28:05;;;;;;;16.05;10.23;;;18.30;48.50;;;;;;5108179;27;45282;-72
2022/03/25 08:30:33;;;;;;;13.38;9.70;;;18.30;48.80;;;;;;5107692;27;45737;-71
2022/03/25 08:33:01;;;;;;;16.40;10.15;;;18.30;48.70;;;;;;5108146;27;45498;-71
2022/03/25 08:35:29;;;;;;;14.98;10.18;;;18.30;48.60;;;;;;5107019;27;48036;-72
2022/03/25 08:37:57;;;;;;;16.42;10.02;;;18.30;48.80;;;;;;5108535;27;45262;-71
2022/03/25 08:40:25;;;;;;;14.85;9.93;;;18.30;48.90;;;;;;5105537;27;45587;-72
2022/03/25 08:42:52;;;;;;;18.13;10.35;;;18.30;49.10;;;;;;5108072;27;45353;-72
2022/03/25 08:45:19;;;;;;;15.07;10.30;;;18.30;49.10;;;;;;5108095;27;45362;-72
2022/03/25 08:47:46;;;;;;;14.38;9.55;;;18.30;49.10;;;;;;5107060;27;45234;-72
2022/03/25 08:50:14;;;;;;;16.52;9.55;;;18.30;48.90;;;;;;5108339;27;45308;-72
2022/03/25 08:52:43;;;;;;;15.90;10.48;;;18.30;49.20;;;;;;5106185;27;45180;-72
2022/03/25 08:55:11;;;;;;;15.23;10.07;;;18.30;49.30;;;;;;5108939;27;47941;-72
2022/03/25 08:57:39;;;;;;;15.23;9.52;;;18.20;49.20;;;;;;5107050;27;45202;-72
2022/03/25 09:00:08;;;;;;;15.07;9.95;;;18.20;48.90;;;;;;5108154;27;45162;-72
2022/03/25 09:02:35;;;;;;;15.50;9.60;;;18.20;49.30;;;;;;5102105;27;45277;-72
2022/03/25 09:05:02;;;;;;;14.18;9.52;;;18.20;49.50;;;;;;5106259;27;47715;-72
2022/03/25 09:07:29;;;;;;;14.00;8.60;;;18.20;49.30;;;;;;5105159;27;45330;-71
2022/03/25 09:09:58;;;;;;;13.60;9.23;;;18.20;49.30;;;;;;5106605;27;45205;-72
2022/03/25 09:12:24;;;;;;;13.95;8.85;;;18.20;49.20;;;;;;5106972;27;45301;-72
2022/03/25 09:14:51;;;;;;;16.70;11.13;;;18.30;49.60;;;;;;5109001;27;46599;-72
2022/03/25 09:17:18;;;;;;;16.98;9.73;;;18.30;49.60;;;;;;5103266;27;45173;-71
2022/03/25 09:19:45;;;;;;;15.40;10.18;;;18.30;49.40;;;;;;5102181;27;45571;-72
2022/03/25 09:22:12;;;;;;;18.02;10.05;;;18.40;49.30;;;;;;5109075;27;45341;-72
2022/03/25 09:24:39;;;;;;;15.93;9.68;;;18.30;49.20;;;;;;5107450;27;46223;-72
2022/03/25 09:27:07;;;;;;;16.40;9.82;;;18.30;49.20;;;;;;5107321;27;45671;-72
2022/03/25 09:29:34;;;;;;;12.55;8.73;;;18.40;49.30;;;;;;5108007;27;45131;-72
2022/03/25 09:32:01;;;;;;;16.23;10.48;;;18.30;49.30;;;;;;5107947;27;45511;-72
2022/03/25 09:37:11;;;;;;;12.88;8.63;;;18.30;49.60;;;;;;5108611;27;45208;-71
2022/03/25 09:39:38;;;;;;;14.25;9.70;;;18.30;49.50;;;;;;5105448;27;45241;-71
2022/03/25 09:42:07;;;;;;;14.73;9.57;;;18.30;49.60;;;;;;5108880;27;45473;-71
2022/03/25 09:44:34;;;;;;;20.13;11.25;;;18.30;49.80;;;;;;5088494;27;46191;-71
2022/03/25 09:47:01;;;;;;;14.98;10.00;;;18.30;49.60;;;;;;5107459;27;45233;-71
2022/03/25 09:49:28;;;;;;;16.40;10.57;;;18.30;49.30;;;;;;5108017;27;45301;-71
2022/03/25 09:51:56;;;;;;;15.88;10.18;;;18.30;49.40;;;;;;5106078;27;45396;-71
2022/03/25 09:54:23;;;;;;;14.68;9.98;;;18.30;49.30;;;;;;5104813;27;45378;-71
2022/03/25 09:56:50;;;;;;;16.02;8.98;;;18.30;49.20;;;;;;5100990;27;45301;-71
2022/03/25 09:59:19;;;;;;;14.40;8.70;;;18.30;49.20;;;;;;5103300;27;45250;-71
2022/03/25 10:01:47;;;;;;;14.27;9.32;;;18.30;49.50;;;;;;5091597;27;45279;-71
2022/03/25 10:04:41;;;;;;;12.18;8.30;;;18.30;49.20;;;;;;5106569;27;46616;-71
2022/03/25 10:07:19;;;;;;;13.63;8.75;;;18.40;49.20;;;;;;5106072;27;45291;-71
2022/03/25 10:09:46;;;;;;;13.63;8.88;;;18.40;49.20;;;;;;5100669;27;45472;-72
2022/03/25 10:12:24;;;;;;;15.05;8.80;;;18.30;49.10;;;;;;5105512;27;45526;-71
2022/03/25 10:15:09;;;;;;;13.55;8.65;;;18.40;49.30;;;;;;5107221;27;47075;-72
2022/03/25 10:17:49;;;;;;;13.68;7.88;;;18.40;49.10;;;;;;5107091;27;45235;-71
2022/03/25 10:20:16;;;;;;;12.55;8.65;;;18.40;48.80;;;;;;5106217;27;45120;-72
2022/03/25 10:22:57;;;;;;;11.93;8.63;;;18.40;48.60;;;;;;5087382;28;45654;-72
2022/03/25 10:25:33;;;;;;;14.15;8.05;;;18.40;48.40;;;;;;5100018;27;45291;-72
2022/03/25 10:28:00;;;;;;;12.85;8.07;;;18.40;48.00;;;;;;5103705;27;45132;-72
2022/03/25 10:30:42;;;;;;;11.82;7.63;;;18.40;48.90;;;;;;5107369;27;45148;-72
2022/03/25 10:33:13;;;;;;;12.63;7.75;;;18.40;47.40;;;;;;5105706;27;45334;-72
2022/03/25 10:36:01;;;;;;;15.50;8.45;;;18.40;47.40;;;;;;5107582;27;46595;-72
2022/03/25 10:38:40;;;;;;;14.68;8.07;;;18.50;47.50;;;;;;5106875;27;45581;-71
2022/03/25 10:41:07;;;;;;;10.23;6.72;;;18.50;47.30;;;;;;5106643;27;45169;-72
2022/03/25 10:43:34;;;;;;;12.68;7.18;;;18.40;47.10;;;;;;5107861;27;45135;-72
2022/03/25 10:46:02;;;;;;;15.02;8.50;;;18.50;47.00;;;;;;5107673;27;45985;-72
2022/03/25 10:48:29;;;;;;;11.07;6.80;;;18.50;46.90;;;;;;5103846;27;45295;-72
2022/03/25 10:51:02;;;;;;;14.07;7.75;;;18.50;47.00;;;;;;5108966;27;45335;-72
2022/03/25 10:53:30;;;;;;;14.07;7.57;;;18.50;46.50;;;;;;5111266;27;45344;-72
2022/03/25 10:55:59;;;;;;;12.48;7.50;;;18.50;46.50;;;;;;5108791;27;46021;-71
2022/03/25 10:58:26;;;;;;;10.65;6.75;;;18.50;46.50;;;;;;5109864;27;45244;-71
2022/03/25 11:00:53;;;;;;;12.18;7.32;;;18.60;46.60;;;;;;5111024;27;45277;-71
2022/03/25 11:03:22;;;;;;;13.02;6.65;;;18.50;46.60;;;;;;5108858;27;45333;-71
2022/03/25 11:05:49;;;;;;;11.23;6.20;;;18.60;47.20;;;;;;5108307;27;46367;-71
2022/03/25 11:08:18;;;;;;;9.70;5.38;;;18.60;46.40;;;;;;5105012;27;45319;-71
2022/03/25 11:10:45;;;;;;;7.30;4.97;;;18.50;46.20;;;;;;5106911;27;45282;-71
2022/03/25 11:13:12;;;;;;;9.88;5.70;;;18.50;46.10;;;;;;5109768;27;45368;-71
2022/03/25 11:15:39;;;;;;;8.48;5.10;;;18.50;46.20;;;;;;5109867;27;48358;-72
2022/03/25 11:18:07;;;;;;;7.85;5.00;;;18.50;46.80;;;;;;5109984;27;45404;-71
2022/03/25 11:20:35;;;;;;;6.47;4.85;;;18.50;46.70;;;;;;5108624;27;45288;-71
2022/03/25 11:23:10;;;;;;;6.75;4.22;;;18.50;46.60;;;;;;5110530;27;45208;-71
2022/03/25 11:25:41;;;;;;;7.93;4.57;;;18.50;46.50;;;;;;5110559;27;45453;-71
2022/03/25 11:28:11;;;;;;;6.55;4.78;;;18.50;46.70;;;;;;5108035;27;45508;-71
2022/03/25 11:30:39;;;;;;;6.63;3.90;;;18.50;46.90;;;;;;5101140;27;45490;-71
2022/03/25 11:33:08;;;;;;;6.38;4.20;;;18.50;46.70;;;;;;5108504;27;45315;-71
2022/03/25 11:35:38;;;;;;;6.68;3.80;;;18.50;46.90;;;;;;5110429;27;47273;-71
2022/03/25 11:38:22;;;;;;;7.72;3.92;;;18.60;47.00;;;;;;5110351;27;45277;-71
2022/03/25 11:40:51;;;;;;;6.25;3.88;;;18.50;46.70;;;;;;5109016;27;45249;-71
2022/03/25 11:43:19;;;;;;;6.60;4.03;;;18.60;45.80;;;;;;5109510;27;45467;-71
2022/03/25 11:46:02;;;;;;;5.88;3.55;;;18.60;46.40;;;;;;5109508;27;45545;-71
2022/03/25 11:48:40;;;;;;;6.13;3.67;;;18.60;45.70;;;;;;5105908;27;45650;-71
2022/03/25 11:51:31;;;;;;;5.60;3.80;;;18.50;46.20;;;;;;5109448;27;45148;-71
2022/03/25 11:53:58;;;;;;;6.13;3.42;;;18.50;46.30;;;;;;5108649;27;45336;-71
2022/03/25 11:56:25;;;;;;;5.00;3.45;;;18.50;46.40;;;;;;5104406;27;47843;-71
2022/03/25 11:59:01;;;;;;;7.43;3.97;;;18.50;46.40;;;;;;5108708;27;45272;-71
2022/03/25 12:01:30;;;;;;;6.70;3.53;;;18.50;46.40;;;;;;5102387;27;45140;-71
2022/03/25 12:03:58;;;;;;;5.45;3.53;;;18.50;45.70;;;;;;5108567;27;45476;-71
2022/03/25 12:06:28;;;;;;;5.22;3.33;;;18.50;45.70;;;;;;5109450;27;46199;-71
2022/03/25 12:08:59;;;;;;;7.07;4.05;;;18.50;45.80;;;;;;5107050;27;45232;-71
2022/03/25 12:11:52;;;;;;;5.93;3.20;;;18.50;46.10;;;;;;5108480;27;45239;-71
2022/03/25 12:14:19;;;;;;;5.25;2.63;;;18.50;45.50;;;;;;5108003;27;45204;-71
2022/03/25 12:16:57;;;;;;;5.28;3.58;;;18.50;46.20;;;;;;5108351;27;48388;-71
2022/03/25 12:19:53;;;;;;;4.35;3.10;;;18.50;46.00;;;;;;5108328;27;45239;-71
2022/03/25 12:22:45;;;;;;;6.65;4.13;;;18.50;45.80;;;;;;5099663;27;45180;-71
2022/03/25 12:25:23;;;;;;;6.32;4.00;;;18.50;45.60;;;;;;5105877;27;45145;-71
2022/03/25 12:27:54;;;;;;;6.07;3.78;;;18.60;45.70;;;;;;5106777;27;48135;-71
2022/03/25 12:30:22;;;;;;;6.93;4.28;;;18.50;45.40;;;;;;5093572;27;45238;-71
2022/03/25 12:32:48;;;;;;;7.43;3.92;;;18.60;46.20;;;;;;5108534;27;45251;-71
2022/03/25 12:35:17;;;;;;;6.13;3.40;;;18.50;45.10;;;;;;5109165;27;45421;-71
2022/03/25 12:38:10;;;;;;;6.10;3.90;;;18.60;44.90;;;;;;5108665;27;45329;-71
2022/03/25 12:40:37;;;;;;;8.00;4.28;;;18.50;44.40;;;;;;5096354;27;45345;-71
2022/03/25 12:43:08;;;;;;;6.45;3.50;;;18.50;44.50;;;;;;5108374;27;45588;-71
2022/03/25 12:45:36;;;;;;;7.45;4.00;;;18.50;44.60;;;;;;5109115;27;45456;-71
2022/03/25 12:48:14;;;;;;;7.28;3.85;;;18.50;44.20;;;;;;5106112;27;45372;-70